sensor_id;sensor_type;location;lat;lon;timestamp;pressure;altitude;pressure_sealevel;temperature;humidity
61026;BME280;46911;32.650;-16.902;2023-04-23T00:01:25;101510.72;;;15.92;66.46
61026;BME280;46911;32.650;-16.902;2023-04-23T00:03:30;101532.88;;;16.06;66.02
61026;BME280;46911;32.650;-16.902;2023-04-23T00:05:41;101530.91;;;15.97;65.81
61026;BME280;46911;32.650;-16.902;2023-04-23T00:07:45;101536.53;;;15.94;65.81
61026;BME280;46911;32.650;-16.902;2023-04-23T00:09:46;101535.16;;;15.88;66.15
61026;BME280;46911;32.650;-16.902;2023-04-23T00:11:52;101543.59;;;15.84;66.09
61026;BME280;46911;32.650;-16.902;2023-04-23T00:13:58;101534.78;;;15.82;66.11
61026;BME280;46911;32.650;-16.902;2023-04-23T00:16:02;101520.53;;;15.68;66.02
61026;BME280;46911;32.650;-16.902;2023-04-23T00:18:03;101528.00;;;15.65;66.08
61026;BME280;46911;32.650;-16.902;2023-04-23T00:20:08;101531.78;;;15.62;66.38
61026;BME280;46911;32.650;-16.902;2023-04-23T00:22:08;101529.09;;;15.62;66.70
61026;BME280;46911;32.650;-16.902;2023-04-23T00:24:09;101538.25;;;15.60;66.90
61026;BME280;46911;32.650;-16.902;2023-04-23T00:26:13;101514.75;;;15.50;67.21
61026;BME280;46911;32.650;-16.902;2023-04-23T00:28:17;101544.34;;;15.62;67.48
61026;BME280;46911;32.650;-16.902;2023-04-23T00:30:18;101538.84;;;15.63;67.65
61026;BME280;46911;32.650;-16.902;2023-04-23T00:32:19;101516.22;;;15.54;67.85
61026;BME280;46911;32.650;-16.902;2023-04-23T00:34:20;101534.97;;;15.67;66.79
61026;BME280;46911;32.650;-16.902;2023-04-23T00:36:24;101528.97;;;15.64;66.73
61026;BME280;46911;32.650;-16.902;2023-04-23T00:38:28;101515.84;;;15.59;66.47
61026;BME280;46911;32.650;-16.902;2023-04-23T00:40:34;101528.00;;;15.65;66.29
61026;BME280;46911;32.650;-16.902;2023-04-23T00:42:36;101511.56;;;15.56;66.13
61026;BME280;46911;32.650;-16.902;2023-04-23T00:44:39;101514.81;;;15.73;65.53
61026;BME280;46911;32.650;-16.902;2023-04-23T00:46:41;101505.97;;;15.60;65.47
61026;BME280;46911;32.650;-16.902;2023-04-23T00:48:44;101514.16;;;15.58;65.71
61026;BME280;46911;32.650;-16.902;2023-04-23T00:50:47;101502.78;;;15.54;65.60
61026;BME280;46911;32.650;-16.902;2023-04-23T00:52:50;101516.38;;;15.64;65.60
61026;BME280;46911;32.650;-16.902;2023-04-23T00:54:51;101493.13;;;15.52;65.39
61026;BME280;46911;32.650;-16.902;2023-04-23T00:56:55;101505.97;;;15.60;65.30
61026;BME280;46911;32.650;-16.902;2023-04-23T00:59:01;101487.50;;;15.55;64.67
61026;BME280;46911;32.650;-16.902;2023-04-23T01:01:11;101495.69;;;15.53;64.78
61026;BME280;46911;32.650;-16.902;2023-04-23T01:03:14;101484.03;;;15.42;64.79
61026;BME280;46911;32.650;-16.902;2023-04-23T01:05:22;101477.06;;;15.39;64.94
61026;BME280;46911;32.650;-16.902;2023-04-23T01:07:23;101503.22;;;15.48;64.95
61026;BME280;46911;32.650;-16.902;2023-04-23T01:09:26;101496.50;;;15.43;64.65
61026;BME280;46911;32.650;-16.902;2023-04-23T01:11:28;101482.03;;;15.32;64.52
61026;BME280;46911;32.650;-16.902;2023-04-23T01:13:29;101477.75;;;15.30;64.87
61026;BME280;46911;32.650;-16.902;2023-04-23T01:15:30;101488.16;;;15.34;65.03
61026;BME280;46911;32.650;-16.902;2023-04-23T01:17:32;101483.75;;;15.33;64.59
61026;BME280;46911;32.650;-16.902;2023-04-23T01:19:34;101469.94;;;15.27;64.70
61026;BME280;46911;32.650;-16.902;2023-04-23T01:21:40;101498.34;;;15.42;64.04
61026;BME280;46911;32.650;-16.902;2023-04-23T01:23:43;101489.91;;;15.35;64.01
61026;BME280;46911;32.650;-16.902;2023-04-23T01:25:45;101478.25;;;15.23;64.20
61026;BME280;46911;32.650;-16.902;2023-04-23T01:27:46;101482.69;;;15.36;64.34
61026;BME280;46911;32.650;-16.902;2023-04-23T01:29:47;101466.16;;;15.29;64.56
61026;BME280;46911;32.650;-16.902;2023-04-23T01:31:52;101492.59;;;15.35;64.78
61026;BME280;46911;32.650;-16.902;2023-04-23T01:33:53;101467.69;;;15.20;64.69
61026;BME280;46911;32.650;-16.902;2023-04-23T01:35:59;101477.16;;;15.26;65.04
61026;BME280;46911;32.650;-16.902;2023-04-23T01:38:02;101481.53;;;15.27;65.12
61026;BME280;46911;32.650;-16.902;2023-04-23T01:40:09;101451.31;;;15.12;65.19
61026;BME280;46911;32.650;-16.902;2023-04-23T01:42:10;101468.56;;;15.21;65.15
61026;BME280;46911;32.650;-16.902;2023-04-23T01:44:15;101457.03;;;15.07;65.22
61026;BME280;46911;32.650;-16.902;2023-04-23T01:46:22;101452.38;;;15.10;65.20
61026;BME280;46911;32.650;-16.902;2023-04-23T01:48:23;101465.09;;;15.07;65.32
61026;BME280;46911;32.650;-16.902;2023-04-23T01:50:29;101458.00;;;15.06;65.41
61026;BME280;46911;32.650;-16.902;2023-04-23T01:52:30;101423.63;;;14.87;65.52
61026;BME280;46911;32.650;-16.902;2023-04-23T01:54:31;101466.97;;;15.18;65.67
61026;BME280;46911;32.650;-16.902;2023-04-23T01:56:32;101447.88;;;15.10;66.20
61026;BME280;46911;32.650;-16.902;2023-04-23T01:58:35;101453.53;;;15.18;66.51
61026;BME280;46911;32.650;-16.902;2023-04-23T02:00:36;101419.34;;;14.96;66.34
61026;BME280;46911;32.650;-16.902;2023-04-23T02:02:38;101450.09;;;15.16;66.21
61026;BME280;46911;32.650;-16.902;2023-04-23T02:04:40;101454.00;;;15.12;66.37
61026;BME280;46911;32.650;-16.902;2023-04-23T02:06:46;101437.72;;;15.02;66.06
61026;BME280;46911;32.650;-16.902;2023-04-23T02:08:47;101448.41;;;15.15;66.18
61026;BME280;46911;32.650;-16.902;2023-04-23T02:10:49;101445.22;;;15.10;66.17
61026;BME280;46911;32.650;-16.902;2023-04-23T02:12:50;101423.78;;;14.97;66.00
61026;BME280;46911;32.650;-16.902;2023-04-23T02:14:53;101446.16;;;15.09;65.46
61026;BME280;46911;32.650;-16.902;2023-04-23T02:16:57;101433.31;;;15.01;65.25
61026;BME280;46911;32.650;-16.902;2023-04-23T02:18:58;101420.25;;;14.97;65.57
61026;BME280;46911;32.650;-16.902;2023-04-23T02:21:02;101445.09;;;15.12;64.75
61026;BME280;46911;32.650;-16.902;2023-04-23T02:23:07;101446.91;;;15.11;65.02
61026;BME280;46911;32.650;-16.902;2023-04-23T02:25:10;101426.13;;;15.02;64.73
61026;BME280;46911;32.650;-16.902;2023-04-23T02:27:14;101444.31;;;15.10;65.16
61026;BME280;46911;32.650;-16.902;2023-04-23T02:29:19;101422.28;;;14.93;65.30
61026;BME280;46911;32.650;-16.902;2023-04-23T02:31:23;101434.06;;;15.03;65.28
61026;BME280;46911;32.650;-16.902;2023-04-23T02:33:24;101433.66;;;14.97;65.34
61026;BME280;46911;32.650;-16.902;2023-04-23T02:35:30;101410.91;;;14.89;65.32
61026;BME280;46911;32.650;-16.902;2023-04-23T02:37:34;101435.28;;;14.99;65.42
61026;BME280;46911;32.650;-16.902;2023-04-23T02:39:35;101414.59;;;14.88;65.27
61026;BME280;46911;32.650;-16.902;2023-04-23T02:41:38;101437.84;;;15.01;65.43
61026;BME280;46911;32.650;-16.902;2023-04-23T02:43:44;101433.06;;;15.04;65.27
61026;BME280;46911;32.650;-16.902;2023-04-23T02:45:45;101410.78;;;14.91;65.23
61026;BME280;46911;32.650;-16.902;2023-04-23T02:47:48;101433.56;;;14.98;65.31
61026;BME280;46911;32.650;-16.902;2023-04-23T02:49:55;101436.00;;;15.01;65.51
61026;BME280;46911;32.650;-16.902;2023-04-23T02:51:58;101419.59;;;14.93;65.69
61026;BME280;46911;32.650;-16.902;2023-04-23T02:53:59;101419.59;;;14.93;65.75
61026;BME280;46911;32.650;-16.902;2023-04-23T02:56:06;101440.03;;;15.07;65.50
61026;BME280;46911;32.650;-16.902;2023-04-23T02:58:09;101417.66;;;14.95;64.96
61026;BME280;46911;32.650;-16.902;2023-04-23T03:00:12;101415.81;;;14.96;64.96
61026;BME280;46911;32.650;-16.902;2023-04-23T03:02:16;101439.47;;;15.15;64.80
61026;BME280;46911;32.650;-16.902;2023-04-23T03:04:20;101427.38;;;15.09;64.89
61026;BME280;46911;32.650;-16.902;2023-04-23T03:06:24;101438.03;;;15.22;64.58
61026;BME280;46911;32.650;-16.902;2023-04-23T03:08:30;101445.03;;;15.25;64.43
61026;BME280;46911;32.650;-16.902;2023-04-23T03:10:30;101423.97;;;15.18;63.89
61026;BME280;46911;32.650;-16.902;2023-04-23T03:12:38;101425.22;;;15.26;63.34
61026;BME280;46911;32.650;-16.902;2023-04-23T03:14:42;101448.34;;;15.39;63.41
61026;BME280;46911;32.650;-16.902;2023-04-23T03:16:43;101426.81;;;15.28;63.26
61026;BME280;46911;32.650;-16.902;2023-04-23T03:18:44;101447.72;;;15.36;63.75
61026;BME280;46911;32.650;-16.902;2023-04-23T03:20:46;101422.91;;;15.32;63.28
61026;BME280;46911;32.650;-16.902;2023-04-23T03:22:53;101421.44;;;15.28;63.32
61026;BME280;46911;32.650;-16.902;2023-04-23T03:24:58;101441.25;;;15.38;63.19
61026;BME280;46911;32.650;-16.902;2023-04-23T03:27:01;101423.28;;;15.28;63.26
61026;BME280;46911;32.650;-16.902;2023-04-23T03:29:02;101446.50;;;15.40;63.21
61026;BME280;46911;32.650;-16.902;2023-04-23T03:31:06;101445.44;;;15.43;63.13
61026;BME280;46911;32.650;-16.902;2023-04-23T03:33:07;101424.50;;;15.35;62.92
61026;BME280;46911;32.650;-16.902;2023-04-23T03:35:11;101444.25;;;15.58;62.26
61026;BME280;46911;32.650;-16.902;2023-04-23T03:37:16;101441.06;;;15.53;62.36
61026;BME280;46911;32.650;-16.902;2023-04-23T03:39:17;101441.56;;;15.58;62.38
61026;BME280;46911;32.650;-16.902;2023-04-23T03:41:24;101444.34;;;15.56;62.32
61026;BME280;46911;32.650;-16.902;2023-04-23T03:43:25;101420.84;;;15.47;62.23
61026;BME280;46911;32.650;-16.902;2023-04-23T03:45:40;101433.97;;;15.52;62.50
61026;BME280;46911;32.650;-16.902;2023-04-23T03:47:44;101434.94;;;15.51;62.80
61026;BME280;46911;32.650;-16.902;2023-04-23T03:49:45;101415.72;;;15.44;62.76
61026;BME280;46911;32.650;-16.902;2023-04-23T03:51:49;101431.53;;;15.49;62.71
61026;BME280;46911;32.650;-16.902;2023-04-23T03:53:56;101423.53;;;15.47;63.01
61026;BME280;46911;32.650;-16.902;2023-04-23T03:56:15;101422.44;;;15.38;63.07
61026;BME280;46911;32.650;-16.902;2023-04-23T03:58:24;101418.16;;;15.36;63.44
61026;BME280;46911;32.650;-16.902;2023-04-23T04:00:26;101403.13;;;15.33;63.12
61026;BME280;46911;32.650;-16.902;2023-04-23T04:02:27;101401.38;;;15.21;63.64
61026;BME280;46911;32.650;-16.902;2023-04-23T04:04:28;101421.91;;;15.22;64.25
61026;BME280;46911;32.650;-16.902;2023-04-23T04:06:34;101418.09;;;15.13;64.70
61026;BME280;46911;32.650;-16.902;2023-04-23T04:08:40;101423.91;;;15.07;64.61
61026;BME280;46911;32.650;-16.902;2023-04-23T04:10:41;101396.63;;;14.89;64.82
61026;BME280;46911;32.650;-16.902;2023-04-23T04:12:47;101423.31;;;15.03;65.11
61026;BME280;46911;32.650;-16.902;2023-04-23T04:14:50;101387.03;;;14.73;65.27
61026;BME280;46911;32.650;-16.902;2023-04-23T04:16:51;101419.59;;;14.93;65.67
61026;BME280;46911;32.650;-16.902;2023-04-23T04:18:55;101400.25;;;14.77;65.93
61026;BME280;46911;32.650;-16.902;2023-04-23T04:20:58;101412.69;;;14.78;66.02
61026;BME280;46911;32.650;-16.902;2023-04-23T04:22:59;101428.88;;;14.89;66.07
61026;BME280;46911;32.650;-16.902;2023-04-23T04:25:00;101424.47;;;14.88;66.30
61026;BME280;46911;32.650;-16.902;2023-04-23T04:27:01;101393.00;;;14.66;66.54
61026;BME280;46911;32.650;-16.902;2023-04-23T04:29:04;101406.03;;;14.83;66.50
61026;BME280;46911;32.650;-16.902;2023-04-23T04:31:06;101391.16;;;14.66;66.49
61026;BME280;46911;32.650;-16.902;2023-04-23T04:33:12;101434.50;;;14.97;66.68
61026;BME280;46911;32.650;-16.902;2023-04-23T04:35:14;101412.13;;;14.85;66.80
61026;BME280;46911;32.650;-16.902;2023-04-23T04:37:15;101426.56;;;14.96;66.88
61026;BME280;46911;32.650;-16.902;2023-04-23T04:39:20;101412.75;;;14.89;66.54
61026;BME280;46911;32.650;-16.902;2023-04-23T04:41:21;101432.34;;;15.02;66.25
61026;BME280;46911;32.650;-16.902;2023-04-23T04:43:27;101437.47;;;15.05;66.25
61026;BME280;46911;32.650;-16.902;2023-04-23T04:45:33;101435.31;;;15.11;65.62
61026;BME280;46911;32.650;-16.902;2023-04-23T04:47:36;101436.28;;;15.10;65.82
61026;BME280;46911;32.650;-16.902;2023-04-23T04:49:36;101430.38;;;15.04;65.67
61026;BME280;46911;32.650;-16.902;2023-04-23T04:51:39;101425.25;;;15.01;66.15
61026;BME280;46911;32.650;-16.902;2023-04-23T04:53:40;101419.97;;;14.88;66.33
61026;BME280;46911;32.650;-16.902;2023-04-23T04:55:49;101428.50;;;14.94;66.69
61026;BME280;46911;32.650;-16.902;2023-04-23T04:57:54;101410.31;;;14.86;66.70
61026;BME280;46911;32.650;-16.902;2023-04-23T05:00:00;101407.38;;;14.89;66.66
61026;BME280;46911;32.650;-16.902;2023-04-23T05:02:01;101429.53;;;15.04;66.77
61026;BME280;46911;32.650;-16.902;2023-04-23T05:04:08;101410.69;;;14.93;66.46
61026;BME280;46911;32.650;-16.902;2023-04-23T05:06:09;101435.03;;;15.02;66.75
61026;BME280;46911;32.650;-16.902;2023-04-23T05:08:13;101425.50;;;14.98;66.87
61026;BME280;46911;32.650;-16.902;2023-04-23T05:10:20;101422.28;;;14.93;66.44
61026;BME280;46911;32.650;-16.902;2023-04-23T05:12:21;101430.88;;;14.98;66.13
61026;BME280;46911;32.650;-16.902;2023-04-23T05:14:28;101429.78;;;15.01;66.44
61026;BME280;46911;32.650;-16.902;2023-04-23T05:16:32;101406.06;;;14.95;65.99
61026;BME280;46911;32.650;-16.902;2023-04-23T05:18:34;101404.97;;;14.97;66.04
61026;BME280;46911;32.650;-16.902;2023-04-23T05:20:35;101404.63;;;15.02;65.77
61026;BME280;46911;32.650;-16.902;2023-04-23T05:22:42;101427.63;;;15.17;65.50
61026;BME280;46911;32.650;-16.902;2023-04-23T05:24:45;101425.19;;;15.14;66.01
61026;BME280;46911;32.650;-16.902;2023-04-23T05:26:50;101424.09;;;15.17;66.06
61026;BME280;46911;32.650;-16.902;2023-04-23T05:28:54;101406.09;;;15.06;66.16
61026;BME280;46911;32.650;-16.902;2023-04-23T05:30:59;101400.09;;;15.02;65.97
61026;BME280;46911;32.650;-16.902;2023-04-23T05:33:03;101420.91;;;15.12;65.92
61026;BME280;46911;32.650;-16.902;2023-04-23T05:35:07;101422.63;;;15.13;65.97
61026;BME280;46911;32.650;-16.902;2023-04-23T05:37:08;101406.69;;;14.98;66.20
61026;BME280;46911;32.650;-16.902;2023-04-23T05:39:09;101417.69;;;15.06;66.40
61026;BME280;46911;32.650;-16.902;2023-04-23T05:41:12;101430.16;;;15.07;66.74
61026;BME280;46911;32.650;-16.902;2023-04-23T05:43:15;101414.97;;;14.95;66.61
61026;BME280;46911;32.650;-16.902;2023-04-23T05:45:16;101433.94;;;15.05;67.11
61026;BME280;46911;32.650;-16.902;2023-04-23T05:47:17;101422.06;;;14.96;66.88
61026;BME280;46911;32.650;-16.902;2023-04-23T05:49:21;101427.09;;;15.01;66.86
61026;BME280;46911;32.650;-16.902;2023-04-23T05:51:22;101439.44;;;15.03;66.92
61026;BME280;46911;32.650;-16.902;2023-04-23T05:53:23;101435.59;;;14.95;67.02
61026;BME280;46911;32.650;-16.902;2023-04-23T05:55:28;101432.25;;;14.80;67.35
61026;BME280;46911;32.650;-16.902;2023-04-23T05:57:29;101446.19;;;14.85;67.58
61026;BME280;46911;32.650;-16.902;2023-04-23T05:59:32;101442.53;;;14.86;67.90
61026;BME280;46911;32.650;-16.902;2023-04-23T06:01:38;101450.91;;;14.81;68.00
61026;BME280;46911;32.650;-16.902;2023-04-23T06:03:39;101434.13;;;14.66;68.14
61026;BME280;46911;32.650;-16.902;2023-04-23T06:05:44;101450.28;;;14.78;68.49
61026;BME280;46911;32.650;-16.902;2023-04-23T06:07:48;101450.41;;;14.76;68.94
61026;BME280;46911;32.650;-16.902;2023-04-23T06:09:49;101459.09;;;14.80;68.15
61026;BME280;46911;32.650;-16.902;2023-04-23T06:11:52;101456.84;;;14.73;68.54
61026;BME280;46911;32.650;-16.902;2023-04-23T06:13:54;101433.56;;;14.61;68.59
61026;BME280;46911;32.650;-16.902;2023-04-23T06:15:56;101457.09;;;14.70;68.42
61026;BME280;46911;32.650;-16.902;2023-04-23T06:17:57;101445.38;;;14.59;68.62
61026;BME280;46911;32.650;-16.902;2023-04-23T06:20:03;101462.69;;;14.67;68.48
61026;BME280;46911;32.650;-16.902;2023-04-23T06:22:09;101465.59;;;14.64;68.51
61026;BME280;46911;32.650;-16.902;2023-04-23T06:24:10;101454.53;;;14.56;68.28
61026;BME280;46911;32.650;-16.902;2023-04-23T06:26:11;101450.53;;;14.62;67.59
61026;BME280;46911;32.650;-16.902;2023-04-23T06:28:11;101464.81;;;14.62;66.94
61026;BME280;46911;32.650;-16.902;2023-04-23T06:30:25;101463.53;;;14.55;67.03
61026;BME280;46911;32.650;-16.902;2023-04-23T06:32:28;101485.66;;;14.71;65.99
61026;BME280;46911;32.650;-16.902;2023-04-23T06:34:30;101482.75;;;14.75;65.79
61026;BME280;46911;32.650;-16.902;2023-04-23T06:36:36;101486.50;;;14.72;65.50
61026;BME280;46911;32.650;-16.902;2023-04-23T06:38:42;101467.81;;;14.57;65.42
61026;BME280;46911;32.650;-16.902;2023-04-23T06:40:45;101490.28;;;14.69;65.68
61026;BME280;46911;32.650;-16.902;2023-04-23T06:42:46;101492.84;;;14.71;65.82
61026;BME280;46911;32.650;-16.902;2023-04-23T06:44:54;101482.25;;;14.56;65.99
61026;BME280;46911;32.650;-16.902;2023-04-23T06:47:02;101490.75;;;14.63;65.61
61026;BME280;46911;32.650;-16.902;2023-04-23T06:49:05;101501.22;;;14.79;65.08
61026;BME280;46911;32.650;-16.902;2023-04-23T06:51:06;101486.50;;;14.72;65.52
61026;BME280;46911;32.650;-16.902;2023-04-23T06:53:10;101500.13;;;14.82;65.67
61026;BME280;46911;32.650;-16.902;2023-04-23T06:55:16;101505.50;;;14.82;65.49
61026;BME280;46911;32.650;-16.902;2023-04-23T06:57:17;101509.56;;;14.87;65.17
61026;BME280;46911;32.650;-16.902;2023-04-23T06:59:23;101505.50;;;14.82;64.96
61026;BME280;46911;32.650;-16.902;2023-04-23T07:01:30;101493.25;;;14.78;64.48
61026;BME280;46911;32.650;-16.902;2023-04-23T07:03:34;101517.63;;;14.87;64.43
61026;BME280;46911;32.650;-16.902;2023-04-23T07:05:35;101521.44;;;14.96;64.09
61026;BME280;46911;32.650;-16.902;2023-04-23T07:07:39;101507.72;;;14.88;63.86
61026;BME280;46911;32.650;-16.902;2023-04-23T07:09:42;101517.78;;;14.97;63.87
61026;BME280;46911;32.650;-16.902;2023-04-23T07:11:43;101510.69;;;14.96;63.57
61026;BME280;46911;32.650;-16.902;2023-04-23T07:13:44;101509.72;;;14.97;63.47
61026;BME280;46911;32.650;-16.902;2023-04-23T07:15:45;101524.22;;;15.07;62.85
61026;BME280;46911;32.650;-16.902;2023-04-23T07:17:48;101531.41;;;15.07;62.75
61026;BME280;46911;32.650;-16.902;2023-04-23T07:19:51;101514.44;;;15.06;62.74
61026;BME280;46911;32.650;-16.902;2023-04-23T07:21:52;101529.63;;;15.19;62.71
61026;BME280;46911;32.650;-16.902;2023-04-23T07:23:56;101540.16;;;15.22;62.47
61026;BME280;46911;32.650;-16.902;2023-04-23T07:26:06;101538.09;;;15.26;62.42
61026;BME280;46911;32.650;-16.902;2023-04-23T07:28:07;101531.50;;;15.30;62.56
61026;BME280;46911;32.650;-16.902;2023-04-23T07:30:10;101539.53;;;15.43;61.96
61026;BME280;46911;32.650;-16.902;2023-04-23T07:32:11;101530.13;;;15.48;61.72
61026;BME280;46911;32.650;-16.902;2023-04-23T07:34:16;101535.03;;;15.54;61.91
61026;BME280;46911;32.650;-16.902;2023-04-23T07:36:21;101520.00;;;15.52;61.83
61026;BME280;46911;32.650;-16.902;2023-04-23T07:38:24;101534.34;;;15.64;61.88
61026;BME280;46911;32.650;-16.902;2023-04-23T07:40:25;101514.16;;;15.58;61.83
61026;BME280;46911;32.650;-16.902;2023-04-23T07:42:29;101545.88;;;15.77;61.83
61026;BME280;46911;32.650;-16.902;2023-04-23T07:44:30;101534.78;;;15.82;61.81
61026;BME280;46911;32.650;-16.902;2023-04-23T07:46:33;101520.56;;;15.80;61.73
61026;BME280;46911;32.650;-16.902;2023-04-23T07:48:37;101535.28;;;15.87;61.35
61026;BME280;46911;32.650;-16.902;2023-04-23T07:50:40;101529.91;;;15.87;61.51
61026;BME280;46911;32.650;-16.902;2023-04-23T07:52:44;101537.38;;;15.95;61.59
61026;BME280;46911;32.650;-16.902;2023-04-23T07:54:45;101546.09;;;15.98;61.82
61026;BME280;46911;32.650;-16.902;2023-04-23T07:56:46;101543.78;;;16.05;61.88
61026;BME280;46911;32.650;-16.902;2023-04-23T07:58:49;101542.69;;;16.08;62.17
61026;BME280;46911;32.650;-16.902;2023-04-23T08:00:52;101546.13;;;16.21;62.26
61026;BME280;46911;32.650;-16.902;2023-04-23T08:02:58;101540.38;;;16.14;62.27
61026;BME280;46911;32.650;-16.902;2023-04-23T08:04:59;101554.06;;;16.34;62.70
61026;BME280;46911;32.650;-16.902;2023-04-23T08:07:00;101544.03;;;16.24;62.98
61026;BME280;46911;32.650;-16.902;2023-04-23T08:09:01;101562.78;;;16.37;63.34
61026;BME280;46911;32.650;-16.902;2023-04-23T08:11:06;101556.16;;;16.42;63.56
61026;BME280;46911;32.650;-16.902;2023-04-23T08:13:09;101537.44;;;16.40;63.99
61026;BME280;46911;32.650;-16.902;2023-04-23T08:15:13;101530.56;;;16.47;64.18
61026;BME280;46911;32.650;-16.902;2023-04-23T08:17:18;101549.19;;;16.62;64.67
61026;BME280;46911;32.650;-16.902;2023-04-23T08:19:24;101557.25;;;16.62;64.77
61026;BME280;46911;32.650;-16.902;2023-04-23T08:21:31;101561.53;;;16.64;64.91
61026;BME280;46911;32.650;-16.902;2023-04-23T08:23:38;101544.75;;;16.61;64.97
61026;BME280;46911;32.650;-16.902;2023-04-23T08:25:39;101552.94;;;16.82;67.25
61026;BME280;46911;32.650;-16.902;2023-04-23T08:27:39;101544.91;;;16.93;67.51
61026;BME280;46911;32.650;-16.902;2023-04-23T08:29:46;101564.28;;;17.19;67.67
61026;BME280;46911;32.650;-16.902;2023-04-23T08:31:47;101552.41;;;17.22;67.58
61026;BME280;46911;32.650;-16.902;2023-04-23T08:33:50;101562.75;;;17.49;67.21
61026;BME280;46911;32.650;-16.902;2023-04-23T08:35:51;101560.84;;;17.61;67.33
61026;BME280;46911;32.650;-16.902;2023-04-23T08:37:52;101569.63;;;17.74;67.60
61026;BME280;46911;32.650;-16.902;2023-04-23T08:39:52;101568.94;;;17.82;67.04
61026;BME280;46911;32.650;-16.902;2023-04-23T08:41:54;101555.78;;;17.68;66.83
61026;BME280;46911;32.650;-16.902;2023-04-23T08:44:20;101553.94;;;17.68;66.99
61026;BME280;46911;32.650;-16.902;2023-04-23T08:46:22;101578.16;;;17.80;66.69
61026;BME280;46911;32.650;-16.902;2023-04-23T08:48:22;101571.78;;;17.81;66.91
61026;BME280;46911;32.650;-16.902;2023-04-23T08:50:27;101583.25;;;17.94;66.75
61026;BME280;46911;32.650;-16.902;2023-04-23T08:52:33;101577.69;;;18.07;66.25
61026;BME280;46911;32.650;-16.902;2023-04-23T08:54:40;101567.84;;;18.27;65.41
61026;BME280;46911;32.650;-16.902;2023-04-23T08:56:45;101561.66;;;18.46;64.54
61026;BME280;46911;32.650;-16.902;2023-04-23T08:58:46;101576.25;;;18.65;63.90
61026;BME280;46911;32.650;-16.902;2023-04-23T09:00:50;101560.91;;;18.65;63.70
61026;BME280;46911;32.650;-16.902;2023-04-23T09:02:56;101575.41;;;19.05;62.93
61026;BME280;46911;32.650;-16.902;2023-04-23T09:05:02;101572.69;;;18.95;63.33
61026;BME280;46911;32.650;-16.902;2023-04-23T09:07:05;101562.03;;;18.94;63.17
61026;BME280;46911;32.650;-16.902;2023-04-23T09:09:15;101587.44;;;19.51;61.85
61026;BME280;46911;32.650;-16.902;2023-04-23T09:11:20;101574.19;;;19.29;61.69
61026;BME280;46911;32.650;-16.902;2023-04-23T09:13:23;101585.16;;;19.47;60.89
61026;BME280;46911;32.650;-16.902;2023-04-23T09:15:26;101578.06;;;19.85;60.03
61026;BME280;46911;32.650;-16.902;2023-04-23T09:17:31;101595.00;;;19.97;59.28
61026;BME280;46911;32.650;-16.902;2023-04-23T09:19:36;101576.19;;;19.85;59.82
61026;BME280;46911;32.650;-16.902;2023-04-23T09:21:38;101590.84;;;20.02;59.50
61026;BME280;46911;32.650;-16.902;2023-04-23T09:23:45;101580.97;;;20.21;58.97
61026;BME280;46911;32.650;-16.902;2023-04-23T09:25:45;101597.19;;;20.31;57.83
61026;BME280;46911;32.650;-16.902;2023-04-23T09:27:49;101585.69;;;20.29;57.42
61026;BME280;46911;32.650;-16.902;2023-04-23T09:29:53;101598.38;;;21.03;56.71
61026;BME280;46911;32.650;-16.902;2023-04-23T09:32:07;101611.78;;;21.05;56.47
61026;BME280;46911;32.650;-16.902;2023-04-23T09:34:08;101603.69;;;21.41;55.91
61026;BME280;46911;32.650;-16.902;2023-04-23T09:36:13;101602.25;;;21.19;55.23
61026;BME280;46911;32.650;-16.902;2023-04-23T09:38:14;101612.78;;;22.30;53.83
61026;BME280;46911;32.650;-16.902;2023-04-23T09:40:17;101604.78;;;21.30;55.00
61026;BME280;46911;32.650;-16.902;2023-04-23T09:42:22;101597.81;;;21.00;55.93
61026;BME280;46911;32.650;-16.902;2023-04-23T09:44:23;101606.94;;;20.99;56.08
61026;BME280;46911;32.650;-16.902;2023-04-23T09:46:33;101605.78;;;21.29;55.09
61026;BME280;46911;32.650;-16.902;2023-04-23T09:48:42;101609.69;;;21.45;54.31
61026;BME280;46911;32.650;-16.902;2023-04-23T09:50:43;101608.97;;;21.43;54.75
61026;BME280;46911;32.650;-16.902;2023-04-23T09:52:54;101621.69;;;21.96;53.06
61026;BME280;46911;32.650;-16.902;2023-04-23T09:54:57;101621.81;;;22.13;52.81
61026;BME280;46911;32.650;-16.902;2023-04-23T09:57:01;101621.72;;;21.60;53.81
61026;BME280;46911;32.650;-16.902;2023-04-23T09:59:22;101620.16;;;21.94;53.19
61026;BME280;46911;32.650;-16.902;2023-04-23T10:01:27;101623.78;;;22.47;51.36
61026;BME280;46911;32.650;-16.902;2023-04-23T10:03:29;101629.00;;;22.66;50.71
61026;BME280;46911;32.650;-16.902;2023-04-23T10:05:30;101622.66;;;22.92;50.82
61026;BME280;46911;32.650;-16.902;2023-04-23T10:07:33;101631.34;;;22.96;50.33
61026;BME280;46911;32.650;-16.902;2023-04-23T10:09:38;101619.03;;;22.83;51.18
61026;BME280;46911;32.650;-16.902;2023-04-23T10:11:40;101639.66;;;22.33;52.12
61026;BME280;46911;32.650;-16.902;2023-04-23T10:13:44;101623.91;;;22.37;52.40
61026;BME280;46911;32.650;-16.902;2023-04-23T10:15:45;101624.88;;;22.97;51.28
61026;BME280;46911;32.650;-16.902;2023-04-23T10:17:47;101630.81;;;22.92;51.05
61026;BME280;46911;32.650;-16.902;2023-04-23T10:19:51;101613.28;;;22.52;52.92
61026;BME280;46911;32.650;-16.902;2023-04-23T10:22:07;101623.03;;;22.97;50.84
61026;BME280;46911;32.650;-16.902;2023-04-23T10:24:12;101629.00;;;21.96;53.11
61026;BME280;46911;32.650;-16.902;2023-04-23T10:26:14;101613.91;;;22.72;51.08
61026;BME280;46911;32.650;-16.902;2023-04-23T10:28:25;101617.31;;;23.17;50.31
61026;BME280;46911;32.650;-16.902;2023-04-23T10:30:34;101631.91;;;23.83;48.30